sensor_id;sensor_type;location;lat;lon;timestamp;temperature;humidity
20432;DHT22;10375;49.136;10.366;2023-08-17T00:00:12;21.00;99.90
20432;DHT22;10375;49.136;10.366;2023-08-17T00:02:42;21.00;99.90
20432;DHT22;10375;49.136;10.366;2023-08-17T00:05:10;21.00;99.90
20432;DHT22;10375;49.136;10.366;2023-08-17T00:07:37;21.00;99.90
20432;DHT22;10375;49.136;10.366;2023-08-17T00:10:05;21.10;99.90
20432;DHT22;10375;49.136;10.366;2023-08-17T00:12:32;21.10;99.90
20432;DHT22;10375;49.136;10.366;2023-08-17T00:15:00;21.10;99.90
20432;DHT22;10375;49.136;10.366;2023-08-17T00:17:27;21.10;99.90
20432;DHT22;10375;49.136;10.366;2023-08-17T00:19:55;21.10;99.90
20432;DHT22;10375;49.136;10.366;2023-08-17T00:22:22;21.20;99.90
20432;DHT22;10375;49.136;10.366;2023-08-17T00:24:50;21.20;99.90
20432;DHT22;10375;49.136;10.366;2023-08-17T00:27:17;21.20;99.90
20432;DHT22;10375;49.136;10.366;2023-08-17T00:29:45;21.30;99.90
20432;DHT22;10375;49.136;10.366;2023-08-17T00:32:12;21.30;99.90
20432;DHT22;10375;49.136;10.366;2023-08-17T00:34:39;21.30;99.90
20432;DHT22;10375;49.136;10.366;2023-08-17T00:37:07;21.20;99.90
20432;DHT22;10375;49.136;10.366;2023-08-17T00:39:34;21.10;99.90
20432;DHT22;10375;49.136;10.366;2023-08-17T00:42:01;21.10;99.90
20432;DHT22;10375;49.136;10.366;2023-08-17T00:44:28;21.00;99.90
20432;DHT22;10375;49.136;10.366;2023-08-17T00:46:56;20.90;99.90
20432;DHT22;10375;49.136;10.366;2023-08-17T00:49:23;21.00;99.90
20432;DHT22;10375;49.136;10.366;2023-08-17T00:51:51;20.90;99.90
20432;DHT22;10375;49.136;10.366;2023-08-17T00:54:24;20.90;99.90
20432;DHT22;10375;49.136;10.366;2023-08-17T00:56:53;20.90;99.90
20432;DHT22;10375;49.136;10.366;2023-08-17T00:59:23;20.80;99.90
20432;DHT22;10375;49.136;10.366;2023-08-17T01:01:51;20.90;99.90
20432;DHT22;10375;49.136;10.366;2023-08-17T01:04:18;20.90;99.90
20432;DHT22;10375;49.136;10.366;2023-08-17T01:06:46;20.80;99.90
20432;DHT22;10375;49.136;10.366;2023-08-17T01:09:13;20.80;99.90
20432;DHT22;10375;49.136;10.366;2023-08-17T01:11:56;20.90;99.90
20432;DHT22;10375;49.136;10.366;2023-08-17T01:14:32;20.80;99.90
20432;DHT22;10375;49.136;10.366;2023-08-17T01:17:10;20.80;99.90
20432;DHT22;10375;49.136;10.366;2023-08-17T01:19:39;20.70;99.90
20432;DHT22;10375;49.136;10.366;2023-08-17T01:22:08;20.60;99.90
20432;DHT22;10375;49.136;10.366;2023-08-17T01:24:38;20.60;99.90
20432;DHT22;10375;49.136;10.366;2023-08-17T01:27:05;20.60;99.90
20432;DHT22;10375;49.136;10.366;2023-08-17T01:29:33;20.50;99.90
20432;DHT22;10375;49.136;10.366;2023-08-17T01:32:21;20.50;99.90
20432;DHT22;10375;49.136;10.366;2023-08-17T01:35:01;20.40;99.90
20432;DHT22;10375;49.136;10.366;2023-08-17T01:37:34;20.30;99.90
20432;DHT22;10375;49.136;10.366;2023-08-17T01:40:01;20.30;99.90
20432;DHT22;10375;49.136;10.366;2023-08-17T01:42:29;20.30;99.90
20432;DHT22;10375;49.136;10.366;2023-08-17T01:44:57;20.20;99.90
20432;DHT22;10375;49.136;10.366;2023-08-17T01:47:24;20.10;99.90
20432;DHT22;10375;49.136;10.366;2023-08-17T01:49:53;20.10;99.90
20432;DHT22;10375;49.136;10.366;2023-08-17T01:52:20;20.00;99.90
20432;DHT22;10375;49.136;10.366;2023-08-17T01:54:48;19.90;99.90
20432;DHT22;10375;49.136;10.366;2023-08-17T01:57:15;19.90;99.90
20432;DHT22;10375;49.136;10.366;2023-08-17T01:59:43;19.80;99.90
20432;DHT22;10375;49.136;10.366;2023-08-17T02:02:11;19.80;99.90
20432;DHT22;10375;49.136;10.366;2023-08-17T02:04:41;19.70;99.90
20432;DHT22;10375;49.136;10.366;2023-08-17T02:07:09;19.70;99.90
20432;DHT22;10375;49.136;10.366;2023-08-17T02:09:36;19.60;99.90
20432;DHT22;10375;49.136;10.366;2023-08-17T02:12:03;19.50;99.90
20432;DHT22;10375;49.136;10.366;2023-08-17T02:14:31;19.50;99.90
20432;DHT22;10375;49.136;10.366;2023-08-17T02:16:58;19.50;99.90
20432;DHT22;10375;49.136;10.366;2023-08-17T02:19:25;19.40;99.90
20432;DHT22;10375;49.136;10.366;2023-08-17T02:21:53;19.40;99.90
20432;DHT22;10375;49.136;10.366;2023-08-17T02:24:20;19.40;99.90
20432;DHT22;10375;49.136;10.366;2023-08-17T02:26:47;19.40;99.90
20432;DHT22;10375;49.136;10.366;2023-08-17T02:29:15;19.30;99.90
20432;DHT22;10375;49.136;10.366;2023-08-17T02:31:42;19.30;99.90
20432;DHT22;10375;49.136;10.366;2023-08-17T02:34:09;19.30;99.90
20432;DHT22;10375;49.136;10.366;2023-08-17T02:36:37;19.30;99.90
20432;DHT22;10375;49.136;10.366;2023-08-17T02:39:04;19.30;99.90
20432;DHT22;10375;49.136;10.366;2023-08-17T02:41:32;19.20;99.90
20432;DHT22;10375;49.136;10.366;2023-08-17T02:44:00;19.20;99.90
20432;DHT22;10375;49.136;10.366;2023-08-17T02:46:28;19.30;99.90
20432;DHT22;10375;49.136;10.366;2023-08-17T02:48:55;19.20;99.90
20432;DHT22;10375;49.136;10.366;2023-08-17T02:51:23;19.20;99.90
20432;DHT22;10375;49.136;10.366;2023-08-17T02:53:50;19.10;99.90
20432;DHT22;10375;49.136;10.366;2023-08-17T02:56:17;19.10;99.90
20432;DHT22;10375;49.136;10.366;2023-08-17T02:58:45;19.00;99.90
20432;DHT22;10375;49.136;10.366;2023-08-17T03:01:12;19.00;99.90
20432;DHT22;10375;49.136;10.366;2023-08-17T03:03:40;18.90;99.90
20432;DHT22;10375;49.136;10.366;2023-08-17T03:06:07;18.90;99.90
20432;DHT22;10375;49.136;10.366;2023-08-17T03:08:35;18.90;99.90
20432;DHT22;10375;49.136;10.366;2023-08-17T03:11:03;18.80;99.90
20432;DHT22;10375;49.136;10.366;2023-08-17T03:13:30;18.80;99.90
20432;DHT22;10375;49.136;10.366;2023-08-17T03:15:57;18.80;99.90
20432;DHT22;10375;49.136;10.366;2023-08-17T03:18:25;18.80;99.90
20432;DHT22;10375;49.136;10.366;2023-08-17T03:20:52;18.70;99.90
20432;DHT22;10375;49.136;10.366;2023-08-17T03:23:20;18.70;99.90
20432;DHT22;10375;49.136;10.366;2023-08-17T03:25:52;18.70;99.90
20432;DHT22;10375;49.136;10.366;2023-08-17T03:28:19;18.60;99.90
20432;DHT22;10375;49.136;10.366;2023-08-17T03:30:47;18.60;99.90
20432;DHT22;10375;49.136;10.366;2023-08-17T03:33:14;18.60;99.90
20432;DHT22;10375;49.136;10.366;2023-08-17T03:35:41;18.60;99.90
20432;DHT22;10375;49.136;10.366;2023-08-17T03:38:09;18.60;99.90
20432;DHT22;10375;49.136;10.366;2023-08-17T03:40:36;18.60;99.90
20432;DHT22;10375;49.136;10.366;2023-08-17T03:43:04;18.60;99.90
20432;DHT22;10375;49.136;10.366;2023-08-17T03:45:32;18.60;99.90
20432;DHT22;10375;49.136;10.366;2023-08-17T03:47:59;18.60;99.90
20432;DHT22;10375;49.136;10.366;2023-08-17T03:50:28;18.60;99.90
20432;DHT22;10375;49.136;10.366;2023-08-17T03:52:55;18.60;99.90
20432;DHT22;10375;49.136;10.366;2023-08-17T03:55:22;18.50;99.90
20432;DHT22;10375;49.136;10.366;2023-08-17T03:57:50;18.30;99.90
20432;DHT22;10375;49.136;10.366;2023-08-17T04:00:17;18.30;99.90
20432;DHT22;10375;49.136;10.366;2023-08-17T04:02:45;18.30;99.90
20432;DHT22;10375;49.136;10.366;2023-08-17T04:05:12;18.30;99.90
20432;DHT22;10375;49.136;10.366;2023-08-17T04:07:39;18.20;99.90
20432;DHT22;10375;49.136;10.366;2023-08-17T04:10:08;18.10;99.90
20432;DHT22;10375;49.136;10.366;2023-08-17T04:12:35;18.10;99.90
20432;DHT22;10375;49.136;10.366;2023-08-17T04:15:03;18.20;99.90
20432;DHT22;10375;49.136;10.366;2023-08-17T04:17:31;18.20;99.90
20432;DHT22;10375;49.136;10.366;2023-08-17T04:19:58;18.30;99.90
20432;DHT22;10375;49.136;10.366;2023-08-17T04:22:25;18.30;99.90
20432;DHT22;10375;49.136;10.366;2023-08-17T04:24:53;18.20;99.90
20432;DHT22;10375;49.136;10.366;2023-08-17T04:27:20;18.20;99.90
20432;DHT22;10375;49.136;10.366;2023-08-17T04:29:48;18.20;99.90
20432;DHT22;10375;49.136;10.366;2023-08-17T04:32:15;18.20;99.90
20432;DHT22;10375;49.136;10.366;2023-08-17T04:34:44;18.20;99.90
20432;DHT22;10375;49.136;10.366;2023-08-17T04:37:12;18.20;99.90
20432;DHT22;10375;49.136;10.366;2023-08-17T04:39:39;18.30;99.90
20432;DHT22;10375;49.136;10.366;2023-08-17T04:42:07;18.20;99.90
20432;DHT22;10375;49.136;10.366;2023-08-17T04:44:35;18.30;99.90
20432;DHT22;10375;49.136;10.366;2023-08-17T04:47:02;18.30;99.90
20432;DHT22;10375;49.136;10.366;2023-08-17T04:49:29;18.40;99.90
20432;DHT22;10375;49.136;10.366;2023-08-17T04:51:57;18.40;99.90
20432;DHT22;10375;49.136;10.366;2023-08-17T04:54:24;18.40;99.90
20432;DHT22;10375;49.136;10.366;2023-08-17T04:56:51;18.50;99.90
20432;DHT22;10375;49.136;10.366;2023-08-17T04:59:18;18.50;99.90
20432;DHT22;10375;49.136;10.366;2023-08-17T05:01:46;18.70;99.90
20432;DHT22;10375;49.136;10.366;2023-08-17T05:04:13;18.80;99.90
20432;DHT22;10375;49.136;10.366;2023-08-17T05:06:40;18.90;99.90
20432;DHT22;10375;49.136;10.366;2023-08-17T05:09:07;19.00;99.90
20432;DHT22;10375;49.136;10.366;2023-08-17T05:11:34;19.10;99.90
20432;DHT22;10375;49.136;10.366;2023-08-17T05:14:02;19.10;99.90
20432;DHT22;10375;49.136;10.366;2023-08-17T05:16:29;19.20;99.90
20432;DHT22;10375;49.136;10.366;2023-08-17T05:18:56;19.30;99.90
20432;DHT22;10375;49.136;10.366;2023-08-17T05:21:25;19.40;99.90
20432;DHT22;10375;49.136;10.366;2023-08-17T05:23:53;19.50;99.90
20432;DHT22;10375;49.136;10.366;2023-08-17T05:26:20;19.70;99.90
20432;DHT22;10375;49.136;10.366;2023-08-17T05:28:48;19.80;99.90
20432;DHT22;10375;49.136;10.366;2023-08-17T05:31:15;19.90;99.90
20432;DHT22;10375;49.136;10.366;2023-08-17T05:33:42;20.00;99.90
20432;DHT22;10375;49.136;10.366;2023-08-17T05:36:10;20.10;99.90
20432;DHT22;10375;49.136;10.366;2023-08-17T05:38:38;20.20;99.90
20432;DHT22;10375;49.136;10.366;2023-08-17T05:41:05;20.40;99.90
20432;DHT22;10375;49.136;10.366;2023-08-17T05:43:32;20.70;99.90
20432;DHT22;10375;49.136;10.366;2023-08-17T05:45:59;22.10;99.90
20432;DHT22;10375;49.136;10.366;2023-08-17T05:48:27;24.60;99.90
20432;DHT22;10375;49.136;10.366;2023-08-17T05:50:55;27.00;99.90
20432;DHT22;10375;49.136;10.366;2023-08-17T05:53:25;29.00;99.90
20432;DHT22;10375;49.136;10.366;2023-08-17T05:55:52;30.50;99.90
20432;DHT22;10375;49.136;10.366;2023-08-17T05:58:19;31.60;99.90
20432;DHT22;10375;49.136;10.366;2023-08-17T06:00:47;32.60;99.90
20432;DHT22;10375;49.136;10.366;2023-08-17T06:03:14;33.30;98.40
20432;DHT22;10375;49.136;10.366;2023-08-17T06:05:41;33.90;96.00
20432;DHT22;10375;49.136;10.366;2023-08-17T06:08:08;34.40;94.90
20432;DHT22;10375;49.136;10.366;2023-08-17T06:10:36;34.80;93.50
20432;DHT22;10375;49.136;10.366;2023-08-17T06:13:03;35.20;92.30
20432;DHT22;10375;49.136;10.366;2023-08-17T06:15:30;35.70;90.90
20432;DHT22;10375;49.136;10.366;2023-08-17T06:17:58;36.10;90.30
20432;DHT22;10375;49.136;10.366;2023-08-17T06:20:25;36.50;88.90
20432;DHT22;10375;49.136;10.366;2023-08-17T06:22:52;36.80;86.90
20432;DHT22;10375;49.136;10.366;2023-08-17T06:25:20;37.00;85.80
20432;DHT22;10375;49.136;10.366;2023-08-17T06:27:49;37.10;85.00
20432;DHT22;10375;49.136;10.366;2023-08-17T06:30:16;37.30;83.20
20432;DHT22;10375;49.136;10.366;2023-08-17T06:32:44;37.30;83.80
20432;DHT22;10375;49.136;10.366;2023-08-17T06:35:11;37.30;83.00
20432;DHT22;10375;49.136;10.366;2023-08-17T06:37:39;37.40;82.90
20432;DHT22;10375;49.136;10.366;2023-08-17T06:40:07;37.50;82.80
20432;DHT22;10375;49.136;10.366;2023-08-17T06:42:36;37.50;82.70
20432;DHT22;10375;49.136;10.366;2023-08-17T06:45:03;37.70;82.60
20432;DHT22;10375;49.136;10.366;2023-08-17T06:47:31;37.60;82.20
20432;DHT22;10375;49.136;10.366;2023-08-17T06:49:59;38.00;82.00
20432;DHT22;10375;49.136;10.366;2023-08-17T06:52:26;38.30;80.90
20432;DHT22;10375;49.136;10.366;2023-08-17T06:54:53;38.40;80.20
20432;DHT22;10375;49.136;10.366;2023-08-17T06:57:21;38.20;79.50
20432;DHT22;10375;49.136;10.366;2023-08-17T06:59:48;37.90;79.60
20432;DHT22;10375;49.136;10.366;2023-08-17T07:02:16;37.80;81.20
20432;DHT22;10375;49.136;10.366;2023-08-17T07:04:43;37.90;81.20
20432;DHT22;10375;49.136;10.366;2023-08-17T07:07:10;38.30;79.80
20432;DHT22;10375;49.136;10.366;2023-08-17T07:09:37;38.50;79.70
20432;DHT22;10375;49.136;10.366;2023-08-17T07:12:05;38.40;80.10
20432;DHT22;10375;49.136;10.366;2023-08-17T07:14:32;38.40;79.20
20432;DHT22;10375;49.136;10.366;2023-08-17T07:17:03;38.60;78.80
20432;DHT22;10375;49.136;10.366;2023-08-17T07:19:31;38.80;78.00
20432;DHT22;10375;49.136;10.366;2023-08-17T07:22:18;38.90;77.50
20432;DHT22;10375;49.136;10.366;2023-08-17T07:24:45;38.80;77.50
20432;DHT22;10375;49.136;10.366;2023-08-17T07:27:12;38.70;77.50
20432;DHT22;10375;49.136;10.366;2023-08-17T07:29:40;38.80;77.70
20432;DHT22;10375;49.136;10.366;2023-08-17T07:32:07;38.70;76.90
20432;DHT22;10375;49.136;10.366;2023-08-17T07:34:36;38.70;76.70
20432;DHT22;10375;49.136;10.366;2023-08-17T07:37:06;38.50;76.00
20432;DHT22;10375;49.136;10.366;2023-08-17T07:39:33;38.00;76.70
20432;DHT22;10375;49.136;10.366;2023-08-17T07:42:01;37.90;76.80
20432;DHT22;10375;49.136;10.366;2023-08-17T07:44:28;37.80;78.20
20432;DHT22;10375;49.136;10.366;2023-08-17T07:46:58;36.80;76.40
20432;DHT22;10375;49.136;10.366;2023-08-17T07:49:28;36.40;79.20
20432;DHT22;10375;49.136;10.366;2023-08-17T07:51:58;35.90;77.10
20432;DHT22;10375;49.136;10.366;2023-08-17T07:54:26;35.10;81.00
20432;DHT22;10375;49.136;10.366;2023-08-17T07:56:54;35.00;82.10
20432;DHT22;10375;49.136;10.366;2023-08-17T07:59:21;34.80;80.00
20432;DHT22;10375;49.136;10.366;2023-08-17T08:01:48;34.30;83.70
20432;DHT22;10375;49.136;10.366;2023-08-17T08:04:16;33.90;83.50
20432;DHT22;10375;49.136;10.366;2023-08-17T08:06:43;33.20;86.10
20432;DHT22;10375;49.136;10.366;2023-08-17T08:09:11;32.50;88.00
20432;DHT22;10375;49.136;10.366;2023-08-17T08:11:38;32.30;87.40
20432;DHT22;10375;49.136;10.366;2023-08-17T08:14:06;31.90;88.00
20432;DHT22;10375;49.136;10.366;2023-08-17T08:16:33;31.80;90.60
20432;DHT22;10375;49.136;10.366;2023-08-17T08:19:00;31.80;88.30
20432;DHT22;10375;49.136;10.366;2023-08-17T08:21:28;31.60;90.30
20432;DHT22;10375;49.136;10.366;2023-08-17T08:23:56;31.80;90.40
20432;DHT22;10375;49.136;10.366;2023-08-17T08:26:23;31.60;91.50
20432;DHT22;10375;49.136;10.366;2023-08-17T08:28:51;31.40;90.70
20432;DHT22;10375;49.136;10.366;2023-08-17T08:31:18;31.40;90.40
20432;DHT22;10375;49.136;10.366;2023-08-17T08:33:46;31.00;90.20
20432;DHT22;10375;49.136;10.366;2023-08-17T08:36:13;30.70;91.90
20432;DHT22;10375;49.136;10.366;2023-08-17T08:38:40;30.80;92.50
20432;DHT22;10375;49.136;10.366;2023-08-17T08:41:08;30.90;92.70
20432;DHT22;10375;49.136;10.366;2023-08-17T08:43:36;31.20;90.70
20432;DHT22;10375;49.136;10.366;2023-08-17T08:46:04;31.10;90.70
20432;DHT22;10375;49.136;10.366;2023-08-17T08:48:32;31.20;91.50
20432;DHT22;10375;49.136;10.366;2023-08-17T08:51:01;31.00;91.60
20432;DHT22;10375;49.136;10.366;2023-08-17T08:53:38;31.00;91.40
20432;DHT22;10375;49.136;10.366;2023-08-17T08:56:11;30.90;90.40
20432;DHT22;10375;49.136;10.366;2023-08-17T08:58:40;31.00;91.80
20432;DHT22;10375;49.136;10.366;2023-08-17T09:01:10;31.50;92.00
20432;DHT22;10375;49.136;10.366;2023-08-17T09:03:41;31.80;89.90
20432;DHT22;10375;49.136;10.366;2023-08-17T09:06:09;31.90;90.30
20432;DHT22;10375;49.136;10.366;2023-08-17T09:08:38;31.80;89.50
20432;DHT22;10375;49.136;10.366;2023-08-17T09:11:07;31.50;89.50
20432;DHT22;10375;49.136;10.366;2023-08-17T09:13:35;31.00;91.10
20432;DHT22;10375;49.136;10.366;2023-08-17T09:16:02;31.00;92.60
20432;DHT22;10375;49.136;10.366;2023-08-17T09:18:33;31.10;91.00
20432;DHT22;10375;49.136;10.366;2023-08-17T09:21:04;31.30;92.50
20432;DHT22;10375;49.136;10.366;2023-08-17T09:23:32;31.40;90.30
20432;DHT22;10375;49.136;10.366;2023-08-17T09:26:08;31.40;90.30
20432;DHT22;10375;49.136;10.366;2023-08-17T09:28:39;31.10;90.30
20432;DHT22;10375;49.136;10.366;2023-08-17T09:31:07;31.20;92.20
20432;DHT22;10375;49.136;10.366;2023-08-17T09:33:35;31.40;92.90
20432;DHT22;10375;49.136;10.366;2023-08-17T09:36:03;31.30;91.00
20432;DHT22;10375;49.136;10.366;2023-08-17T09:38:30;31.50;91.20
20432;DHT22;10375;49.136;10.366;2023-08-17T09:40:58;31.80;91.80
20432;DHT22;10375;49.136;10.366;2023-08-17T09:43:25;32.30;88.80
20432;DHT22;10375;49.136;10.366;2023-08-17T09:45:56;32.10;90.20
20432;DHT22;10375;49.136;10.366;2023-08-17T09:48:25;31.90;89.40
20432;DHT22;10375;49.136;10.366;2023-08-17T09:50:59;31.90;89.40
20432;DHT22;10375;49.136;10.366;2023-08-17T09:53:28;31.90;88.60
20432;DHT22;10375;49.136;10.366;2023-08-17T09:55:57;31.70;89.10
20432;DHT22;10375;49.136;10.366;2023-08-17T09:58:26;31.90;91.00
20432;DHT22;10375;49.136;10.366;2023-08-17T10:00:58;32.00;89.40
20432;DHT22;10375;49.136;10.366;2023-08-17T10:03:29;31.60;90.10
20432;DHT22;10375;49.136;10.366;2023-08-17T10:06:06;31.30;88.70
20432;DHT22;10375;49.136;10.366;2023-08-17T10:08:42;31.50;89.30
20432;DHT22;10375;49.136;10.366;2023-08-17T10:11:12;31.80;90.20
20432;DHT22;10375;49.136;10.366;2023-08-17T10:16:45;32.10;89.60
20432;DHT22;10375;49.136;10.366;2023-08-17T10:21:48;32.90;90.20
20432;DHT22;10375;49.136;10.366;2023-08-17T10:24:17;33.20;86.10
20432;DHT22;10375;49.136;10.366;2023-08-17T10:26:45;33.20;85.30
20432;DHT22;10375;49.136;10.366;2023-08-17T10:29:13;32.70;85.60
20432;DHT22;10375;49.136;10.366;2023-08-17T10:31:47;32.90;87.50
20432;DHT22;10375;49.136;10.366;2023-08-17T10:34:15;32.90;87.40
20432;DHT22;10375;49.136;10.366;2023-08-17T10:36:44;32.30;84.90
20432;DHT22;10375;49.136;10.366;2023-08-17T10:39:23;32.50;87.50
20432;DHT22;10375;49.136;10.366;2023-08-17T10:41:56;32.90;83.10
20432;DHT22;10375;49.136;10.366;2023-08-17T10:44:46;32.90;84.00
20432;DHT22;10375;49.136;10.366;2023-08-17T10:47:31;32.40;82.90
20432;DHT22;10375;49.136;10.366;2023-08-17T10:50:19;32.10;82.30
20432;DHT22;10375;49.136;10.366;2023-08-17T10:52:49;32.00;82.70
20432;DHT22;10375;49.136;10.366;2023-08-17T10:55:16;31.90;85.80
20432;DHT22;10375;49.136;10.366;2023-08-17T10:57:45;32.10;86.10
20432;DHT22;10375;49.136;10.366;2023-08-17T11:00:23;31.90;84.30
20432;DHT22;10375;49.136;10.366;2023-08-17T11:03:02;32.10;85.50
20432;DHT22;10375;49.136;10.366;2023-08-17T11:05:53;32.50;82.60
20432;DHT22;10375;49.136;10.366;2023-08-17T11:08:37;32.70;82.00
20432;DHT22;10375;49.136;10.366;2023-08-17T11:11:13;32.90;80.60
20432;DHT22;10375;49.136;10.366;2023-08-17T11:13:42;32.50;82.30
20432;DHT22;10375;49.136;10.366;2023-08-17T11:16:13;32.80;78.80
20432;DHT22;10375;49.136;10.366;2023-08-17T11:18:44;33.10;83.60
20432;DHT22;10375;49.136;10.366;2023-08-17T11:21:12;33.30;80.40
20432;DHT22;10375;49.136;10.366;2023-08-17T11:23:45;33.30;78.20
20432;DHT22;10375;49.136;10.366;2023-08-17T11:26:16;33.60;81.70
20432;DHT22;10375;49.136;10.366;2023-08-17T11:28:43;34.20;78.50
20432;DHT22;10375;49.136;10.366;2023-08-17T11:31:13;34.30;77.00
20432;DHT22;10375;49.136;10.366;2023-08-17T11:33:43;34.30;79.50
20432;DHT22;10375;49.136;10.366;2023-08-17T11:36:12;34.50;78.40
20432;DHT22;10375;49.136;10.366;2023-08-17T11:38:41;34.60;74.50
20432;DHT22;10375;49.136;10.366;2023-08-17T11:41:09;34.40;77.40
20432;DHT22;10375;49.136;10.366;2023-08-17T11:43:44;34.50;74.20
20432;DHT22;10375;49.136;10.366;2023-08-17T11:46:12;34.00;73.60
20432;DHT22;10375;49.136;10.366;2023-08-17T11:48:40;33.70;74.40
20432;DHT22;10375;49.136;10.366;2023-08-17T11:51:07;33.80;74.40
20432;DHT22;10375;49.136;10.366;2023-08-17T11:53:35;33.90;76.20
20432;DHT22;10375;49.136;10.366;2023-08-17T11:56:02;33.90;76.80
20432;DHT22;10375;49.136;10.366;2023-08-17T11:58:47;33.90;76.50
20432;DHT22;10375;49.136;10.366;2023-08-17T12:01:15;33.80;75.80
20432;DHT22;10375;49.136;10.366;2023-08-17T12:03:45;33.60;77.10
20432;DHT22;10375;49.136;10.366;2023-08-17T12:06:16;33.70;77.80
20432;DHT22;10375;49.136;10.366;2023-08-17T12:08:47;33.80;75.00
20432;DHT22;10375;49.136;10.366;2023-08-17T12:11:16;33.80;76.00
20432;DHT22;10375;49.136;10.366;2023-08-17T12:13:53;33.70;78.00
20432;DHT22;10375;49.136;10.366;2023-08-17T12:16:20;33.90;75.40
20432;DHT22;10375;49.136;10.366;2023-08-17T12:18:50;34.10;73.60
20432;DHT22;10375;49.136;10.366;2023-08-17T12:21:22;34.10;76.10
20432;DHT22;10375;49.136;10.366;2023-08-17T12:23:50;33.50;72.50
20432;DHT22;10375;49.136;10.366;2023-08-17T12:26:21;33.50;74.20
20432;DHT22;10375;49.136;10.366;2023-08-17T12:28:49;33.40;76.90
20432;DHT22;10375;49.136;10.366;2023-08-17T12:31:21;33.40;74.30
20432;DHT22;10375;49.136;10.366;2023-08-17T12:33:50;33.40;69.00
20432;DHT22;10375;49.136;10.366;2023-08-17T12:36:17;33.30;72.50
20432;DHT22;10375;49.136;10.366;2023-08-17T12:38:45;33.20;72.10
20432;DHT22;10375;49.136;10.366;2023-08-17T12:41:15;33.00;71.50
20432;DHT22;10375;49.136;10.366;2023-08-17T12:43:42;33.10;75.40
20432;DHT22;10375;49.136;10.366;2023-08-17T12:46:09;33.20;75.00
20432;DHT22;10375;49.136;10.366;2023-08-17T12:48:38;33.50;73.80
20432;DHT22;10375;49.136;10.366;2023-08-17T12:51:05;33.50;70.60
20432;DHT22;10375;49.136;10.366;2023-08-17T12:53:33;33.30;74.40
20432;DHT22;10375;49.136;10.366;2023-08-17T12:56:00;33.30;73.00
20432;DHT22;10375;49.136;10.366;2023-08-17T12:58:27;33.50;74.00
20432;DHT22;10375;49.136;10.366;2023-08-17T13:00:54;33.50;70.60
20432;DHT22;10375;49.136;10.366;2023-08-17T13:03:21;33.30;71.40
20432;DHT22;10375;49.136;10.366;2023-08-17T13:05:49;33.30;72.60
20432;DHT22;10375;49.136;10.366;2023-08-17T13:08:16;33.40;71.40
20432;DHT22;10375;49.136;10.366;2023-08-17T13:10:43;33.10;71.50
20432;DHT22;10375;49.136;10.366;2023-08-17T13:13:10;33.10;71.80
20432;DHT22;10375;49.136;10.366;2023-08-17T13:15:38;33.20;71.30
20432;DHT22;10375;49.136;10.366;2023-08-17T13:18:05;33.20;73.40
20432;DHT22;10375;49.136;10.366;2023-08-17T13:20:32;33.20;74.90
20432;DHT22;10375;49.136;10.366;2023-08-17T13:22:59;32.90;72.50
20432;DHT22;10375;49.136;10.366;2023-08-17T13:25:26;32.60;75.50
20432;DHT22;10375;49.136;10.366;2023-08-17T13:27:54;32.30;74.40
20432;DHT22;10375;49.136;10.366;2023-08-17T13:30:21;31.80;73.80
20432;DHT22;10375;49.136;10.366;2023-08-17T13:32:48;31.60;76.50
20432;DHT22;10375;49.136;10.366;2023-08-17T13:35:15;31.40;76.90
20432;DHT22;10375;49.136;10.366;2023-08-17T13:37:43;31.30;77.50
20432;DHT22;10375;49.136;10.366;2023-08-17T13:40:10;31.30;78.90
20432;DHT22;10375;49.136;10.366;2023-08-17T13:42:37;31.20;78.80
20432;DHT22;10375;49.136;10.366;2023-08-17T13:45:05;31.20;79.90
20432;DHT22;10375;49.136;10.366;2023-08-17T13:47:32;31.10;80.00
20432;DHT22;10375;49.136;10.366;2023-08-17T13:49:59;30.90;82.10
20432;DHT22;10375;49.136;10.366;2023-08-17T13:52:26;30.80;81.10
20432;DHT22;10375;49.136;10.366;2023-08-17T13:54:54;30.60;80.90
20432;DHT22;10375;49.136;10.366;2023-08-17T13:57:21;30.50;82.00
20432;DHT22;10375;49.136;10.366;2023-08-17T13:59:49;30.40;83.30
20432;DHT22;10375;49.136;10.366;2023-08-17T14:02:16;30.20;82.90
20432;DHT22;10375;49.136;10.366;2023-08-17T14:04:43;30.00;85.20
20432;DHT22;10375;49.136;10.366;2023-08-17T14:07:10;29.80;86.30
20432;DHT22;10375;49.136;10.366;2023-08-17T14:09:37;29.60;87.80
20432;DHT22;10375;49.136;10.366;2023-08-17T14:12:04;29.50;90.00
20432;DHT22;10375;49.136;10.366;2023-08-17T14:14:32;29.30;86.60
20432;DHT22;10375;49.136;10.366;2023-08-17T14:17:00;28.90;88.20
20432;DHT22;10375;49.136;10.366;2023-08-17T14:19:27;28.50;87.10
20432;DHT22;10375;49.136;10.366;2023-08-17T14:21:54;28.00;88.60
20432;DHT22;10375;49.136;10.366;2023-08-17T14:24:21;27.50;89.30
20432;DHT22;10375;49.136;10.366;2023-08-17T14:26:48;27.10;88.70
20432;DHT22;10375;49.136;10.366;2023-08-17T14:29:15;26.60;90.40
20432;DHT22;10375;49.136;10.366;2023-08-17T14:31:43;26.30;90.60
20432;DHT22;10375;49.136;10.366;2023-08-17T14:34:10;26.00;91.20
20432;DHT22;10375;49.136;10.366;2023-08-17T14:36:37;25.90;92.00
20432;DHT22;10375;49.136;10.366;2023-08-17T14:39:04;25.80;92.50
20432;DHT22;10375;49.136;10.366;2023-08-17T14:41:31;25.70;95.20
20432;DHT22;10375;49.136;10.366;2023-08-17T14:43:59;25.60;96.60
20432;DHT22;10375;49.136;10.366;2023-08-17T14:46:29;25.50;97.90
20432;DHT22;10375;49.136;10.366;2023-08-17T14:48:57;25.40;99.30
20432;DHT22;10375;49.136;10.366;2023-08-17T14:51:24;25.10;99.90
20432;DHT22;10375;49.136;10.366;2023-08-17T14:53:55;24.80;99.90
20432;DHT22;10375;49.136;10.366;2023-08-17T14:56:23;24.60;99.90
20432;DHT22;10375;49.136;10.366;2023-08-17T14:58:50;24.40;99.90
20432;DHT22;10375;49.136;10.366;2023-08-17T15:01:17;24.30;99.90
20432;DHT22;10375;49.136;10.366;2023-08-17T15:03:45;24.10;99.90
20432;DHT22;10375;49.136;10.366;2023-08-17T15:06:13;23.90;99.90
20432;DHT22;10375;49.136;10.366;2023-08-17T15:08:59;23.70;99.90
20432;DHT22;10375;49.136;10.366;2023-08-17T15:11:26;23.50;99.90
20432;DHT22;10375;49.136;10.366;2023-08-17T15:13:53;23.30;99.90
20432;DHT22;10375;49.136;10.366;2023-08-17T15:16:20;23.20;99.90
20432;DHT22;10375;49.136;10.366;2023-08-17T15:18:52;23.20;99.90
20432;DHT22;10375;49.136;10.366;2023-08-17T15:21:21;23.20;99.90
20432;DHT22;10375;49.136;10.366;2023-08-17T15:23:48;23.20;99.90
20432;DHT22;10375;49.136;10.366;2023-08-17T15:26:17;23.10;99.90
20432;DHT22;10375;49.136;10.366;2023-08-17T15:28:44;22.70;99.90